sensor_id;sensor_type;location;lat;lon;timestamp;pressure;altitude;pressure_sealevel;temperature;humidity
62374;BME280;48409;49.030;1.820;2022-09-09T00:00:54;100169.47;;;20.06;52.59
62374;BME280;48409;49.030;1.820;2022-09-09T00:03:40;100166.13;;;20.04;52.72
62374;BME280;48409;49.030;1.820;2022-09-09T00:06:33;100164.44;;;20.03;52.70
62374;BME280;48409;49.030;1.820;2022-09-09T00:09:08;100162.75;;;20.02;52.73
62374;BME280;48409;49.030;1.820;2022-09-09T00:11:49;100163.72;;;20.01;52.71
62374;BME280;48409;49.030;1.820;2022-09-09T00:14:30;100158.53;;;20.00;52.78
62374;BME280;48409;49.030;1.820;2022-09-09T00:17:39;100156.00;;;19.98;52.75
62374;BME280;48409;49.030;1.820;2022-09-09T00:23:12;100154.28;;;19.97;52.88
62374;BME280;48409;49.030;1.820;2022-09-09T00:26:15;100151.91;;;19.94;52.81
62374;BME280;48409;49.030;1.820;2022-09-09T00:28:57;100152.88;;;19.93;52.76
62374;BME280;48409;49.030;1.820;2022-09-09T00:31:28;100152.88;;;19.93;53.06
62374;BME280;48409;49.030;1.820;2022-09-09T00:33:59;100154.88;;;19.91;53.01
62374;BME280;48409;49.030;1.820;2022-09-09T00:36:27;100149.53;;;19.91;53.20
62374;BME280;48409;49.030;1.820;2022-09-09T00:39:00;100143.34;;;19.90;53.24
62374;BME280;48409;49.030;1.820;2022-09-09T00:44:32;100147.69;;;19.91;53.32
62374;BME280;48409;49.030;1.820;2022-09-09T00:47:43;100129.84;;;19.92;53.45
62374;BME280;48409;49.030;1.820;2022-09-09T00:49:58;100135.19;;;19.92;53.22
62374;BME280;48409;49.030;1.820;2022-09-09T00:52:51;100134.31;;;19.91;53.07
62374;BME280;48409;49.030;1.820;2022-09-09T00:58:09;100136.19;;;19.91;53.36
62374;BME280;48409;49.030;1.820;2022-09-09T01:00:47;100128.16;;;19.91;53.12
62374;BME280;48409;49.030;1.820;2022-09-09T01:09:13;100126.31;;;19.91;53.19
62374;BME280;48409;49.030;1.820;2022-09-09T01:17:30;100112.13;;;19.91;53.31
62374;BME280;48409;49.030;1.820;2022-09-09T01:20:13;100109.44;;;19.91;53.30
62374;BME280;48409;49.030;1.820;2022-09-09T01:28:35;100118.28;;;19.91;53.53
62374;BME280;48409;49.030;1.820;2022-09-09T01:31:03;100121.97;;;19.90;53.66
62374;BME280;48409;49.030;1.820;2022-09-09T01:33:29;100112.13;;;19.91;53.63
62374;BME280;48409;49.030;1.820;2022-09-09T01:36:03;100120.81;;;19.93;53.41
62374;BME280;48409;49.030;1.820;2022-09-09T01:38:31;100113.81;;;19.92;53.70
62374;BME280;48409;49.030;1.820;2022-09-09T01:40:56;100114.47;;;19.94;53.61
62374;BME280;48409;49.030;1.820;2022-09-09T01:43:23;100107.31;;;19.94;53.69
62374;BME280;48409;49.030;1.820;2022-09-09T01:45:53;100101.13;;;19.94;53.62
62374;BME280;48409;49.030;1.820;2022-09-09T01:48:20;100101.13;;;19.94;53.59
62374;BME280;48409;49.030;1.820;2022-09-09T01:50:46;100106.47;;;19.94;53.64
62374;BME280;48409;49.030;1.820;2022-09-09T01:53:13;100101.97;;;19.94;53.60
62374;BME280;48409;49.030;1.820;2022-09-09T01:56:07;100096.63;;;19.94;53.40
62374;BME280;48409;49.030;1.820;2022-09-09T02:03:47;100099.44;;;19.93;53.74
62374;BME280;48409;49.030;1.820;2022-09-09T02:06:34;100107.59;;;19.91;53.40
62374;BME280;48409;49.030;1.820;2022-09-09T02:09:03;100099.72;;;19.90;53.50
62374;BME280;48409;49.030;1.820;2022-09-09T02:11:30;100096.22;;;19.89;53.54
62374;BME280;48409;49.030;1.820;2022-09-09T02:14:12;100097.22;;;19.88;53.46
62374;BME280;48409;49.030;1.820;2022-09-09T02:16:59;100097.38;;;19.87;53.60
62374;BME280;48409;49.030;1.820;2022-09-09T02:19:32;100099.19;;;19.86;53.51
62374;BME280;48409;49.030;1.820;2022-09-09T02:22:00;100096.66;;;19.85;53.55
62374;BME280;48409;49.030;1.820;2022-09-09T02:24:29;100090.63;;;19.82;53.61
62374;BME280;48409;49.030;1.820;2022-09-09T02:26:57;100095.97;;;19.82;53.71
62374;BME280;48409;49.030;1.820;2022-09-09T02:29:30;100095.97;;;19.82;53.56
62374;BME280;48409;49.030;1.820;2022-09-09T02:32:00;100085.56;;;19.79;53.56
62374;BME280;48409;49.030;1.820;2022-09-09T02:34:30;100082.06;;;19.79;53.58
62374;BME280;48409;49.030;1.820;2022-09-09T02:36:57;100081.22;;;19.78;53.61
62374;BME280;48409;49.030;1.820;2022-09-09T02:39:25;100084.03;;;19.77;53.78
62374;BME280;48409;49.030;1.820;2022-09-09T02:41:51;100086.84;;;19.75;53.70
62374;BME280;48409;49.030;1.820;2022-09-09T02:44:17;100081.38;;;19.77;53.68
62374;BME280;48409;49.030;1.820;2022-09-09T02:52:26;100082.63;;;19.73;53.70
62374;BME280;48409;49.030;1.820;2022-09-09T02:55:02;100074.78;;;19.71;53.70
62374;BME280;48409;49.030;1.820;2022-09-09T02:57:30;100071.41;;;19.69;53.84
62374;BME280;48409;49.030;1.820;2022-09-09T02:59:58;100077.56;;;19.69;53.75
62374;BME280;48409;49.030;1.820;2022-09-09T03:02:24;100075.09;;;19.68;53.71
62374;BME280;48409;49.030;1.820;2022-09-09T03:04:50;100071.41;;;19.69;53.90
62374;BME280;48409;49.030;1.820;2022-09-09T03:07:20;100076.75;;;19.69;53.86
62374;BME280;48409;49.030;1.820;2022-09-09T03:09:45;100083.09;;;19.68;53.79
62374;BME280;48409;49.030;1.820;2022-09-09T03:12:11;100084.06;;;19.67;53.96
62374;BME280;48409;49.030;1.820;2022-09-09T03:14:37;100083.22;;;19.66;53.84
62374;BME280;48409;49.030;1.820;2022-09-09T03:17:04;100085.75;;;19.68;53.97
62374;BME280;48409;49.030;1.820;2022-09-09T03:19:29;100085.75;;;19.68;53.95
62374;BME280;48409;49.030;1.820;2022-09-09T03:21:55;100070.03;;;19.65;53.91
62374;BME280;48409;49.030;1.820;2022-09-09T03:24:20;100077.91;;;19.66;53.85
62374;BME280;48409;49.030;1.820;2022-09-09T03:26:46;100079.72;;;19.66;53.96
62374;BME280;48409;49.030;1.820;2022-09-09T03:29:12;100070.84;;;19.65;54.06
62374;BME280;48409;49.030;1.820;2022-09-09T03:31:39;100075.34;;;19.65;53.75
62374;BME280;48409;49.030;1.820;2022-09-09T03:34:04;100072.84;;;19.63;54.04
62374;BME280;48409;49.030;1.820;2022-09-09T03:36:31;100076.34;;;19.64;53.98
62374;BME280;48409;49.030;1.820;2022-09-09T03:38:56;100078.03;;;19.65;54.01
62374;BME280;48409;49.030;1.820;2022-09-09T03:41:23;100067.50;;;19.63;54.08
62374;BME280;48409;49.030;1.820;2022-09-09T03:43:51;100069.31;;;19.63;54.00
62374;BME280;48409;49.030;1.820;2022-09-09T03:46:18;100072.97;;;19.62;54.05
62374;BME280;48409;49.030;1.820;2022-09-09T03:48:44;100082.66;;;19.63;54.16
62374;BME280;48409;49.030;1.820;2022-09-09T03:51:11;100072.97;;;19.62;54.01
62374;BME280;48409;49.030;1.820;2022-09-09T03:53:36;100074.81;;;19.61;53.98
62374;BME280;48409;49.030;1.820;2022-09-09T03:56:04;100085.66;;;19.60;54.21
62374;BME280;48409;49.030;1.820;2022-09-09T03:58:32;100074.97;;;19.60;54.13
62374;BME280;48409;49.030;1.820;2022-09-09T04:01:00;100059.91;;;19.59;54.12
62374;BME280;48409;49.030;1.820;2022-09-09T04:03:29;100066.09;;;19.59;54.11
62374;BME280;48409;49.030;1.820;2022-09-09T04:05:56;100065.25;;;19.59;54.07
62374;BME280;48409;49.030;1.820;2022-09-09T04:08:23;100056.53;;;19.56;54.20
62374;BME280;48409;49.030;1.820;2022-09-09T04:10:52;100061.88;;;19.56;54.16
62374;BME280;48409;49.030;1.820;2022-09-09T04:13:18;100067.22;;;19.56;54.33
62374;BME280;48409;49.030;1.820;2022-09-09T04:15:51;100057.53;;;19.55;54.08
62374;BME280;48409;49.030;1.820;2022-09-09T04:18:17;100056.53;;;19.56;54.19
62374;BME280;48409;49.030;1.820;2022-09-09T04:20:42;100053.88;;;19.56;54.23
62374;BME280;48409;49.030;1.820;2022-09-09T04:23:08;100057.53;;;19.55;54.05
62374;BME280;48409;49.030;1.820;2022-09-09T04:25:34;100059.34;;;19.55;54.20
62374;BME280;48409;49.030;1.820;2022-09-09T04:27:59;100060.22;;;19.55;54.33
62374;BME280;48409;49.030;1.820;2022-09-09T04:30:25;100063.88;;;19.54;54.29
62374;BME280;48409;49.030;1.820;2022-09-09T04:32:50;100063.16;;;19.52;54.16
62374;BME280;48409;49.030;1.820;2022-09-09T04:35:16;100062.16;;;19.53;54.31
62374;BME280;48409;49.030;1.820;2022-09-09T04:37:41;100071.16;;;19.52;54.20
62374;BME280;48409;49.030;1.820;2022-09-09T04:40:08;100068.50;;;19.52;54.40
62374;BME280;48409;49.030;1.820;2022-09-09T04:42:38;100068.66;;;19.51;54.33
62374;BME280;48409;49.030;1.820;2022-09-09T04:45:05;100071.16;;;19.52;54.31
62374;BME280;48409;49.030;1.820;2022-09-09T04:47:32;100073.16;;;19.50;54.42
62374;BME280;48409;49.030;1.820;2022-09-09T04:49:57;100064.97;;;19.52;54.42
62374;BME280;48409;49.030;1.820;2022-09-09T04:52:23;100059.50;;;19.53;54.39
62374;BME280;48409;49.030;1.820;2022-09-09T04:54:48;100068.38;;;19.54;54.38
62374;BME280;48409;49.030;1.820;2022-09-09T04:57:13;100068.22;;;19.55;54.47
62374;BME280;48409;49.030;1.820;2022-09-09T04:59:39;100069.22;;;19.54;54.55
62374;BME280;48409;49.030;1.820;2022-09-09T05:02:05;100081.56;;;19.55;54.39
62374;BME280;48409;49.030;1.820;2022-09-09T05:04:30;100074.56;;;19.54;54.59
62374;BME280;48409;49.030;1.820;2022-09-09T05:06:56;100077.91;;;19.56;54.39
62374;BME280;48409;49.030;1.820;2022-09-09T05:09:21;100089.44;;;19.57;54.55
62374;BME280;48409;49.030;1.820;2022-09-09T05:11:47;100083.25;;;19.56;54.54
62374;BME280;48409;49.030;1.820;2022-09-09T05:14:12;100083.94;;;19.59;54.49
62374;BME280;48409;49.030;1.820;2022-09-09T05:16:38;100088.31;;;19.60;54.59
62374;BME280;48409;49.030;1.820;2022-09-09T05:19:03;100088.31;;;19.60;54.58
62374;BME280;48409;49.030;1.820;2022-09-09T05:21:29;100090.84;;;19.61;54.49
62374;BME280;48409;49.030;1.820;2022-09-09T05:23:56;100091.66;;;19.62;54.49
62374;BME280;48409;49.030;1.820;2022-09-09T05:26:22;100099.69;;;19.62;54.65
62374;BME280;48409;49.030;1.820;2022-09-09T05:28:48;100093.34;;;19.63;54.57
62374;BME280;48409;49.030;1.820;2022-09-09T05:31:15;100092.38;;;19.64;54.62
62374;BME280;48409;49.030;1.820;2022-09-09T05:33:43;100091.38;;;19.65;54.59
62374;BME280;48409;49.030;1.820;2022-09-09T05:36:13;100088.56;;;19.66;54.67
62374;BME280;48409;49.030;1.820;2022-09-09T05:38:39;100088.56;;;19.66;54.60
62374;BME280;48409;49.030;1.820;2022-09-09T05:41:06;100099.25;;;19.66;54.58
62374;BME280;48409;49.030;1.820;2022-09-09T05:43:34;100096.44;;;19.68;54.60
62374;BME280;48409;49.030;1.820;2022-09-09T05:48:34;100092.78;;;19.69;54.73
62374;BME280;48409;49.030;1.820;2022-09-09T05:51:00;100098.13;;;19.69;54.63
62374;BME280;48409;49.030;1.820;2022-09-09T05:53:28;100106.81;;;19.71;54.70
62374;BME280;48409;49.030;1.820;2022-09-09T05:56:11;100097.81;;;19.72;54.63
62374;BME280;48409;49.030;1.820;2022-09-09T05:58:38;100097.00;;;19.72;54.65
62374;BME280;48409;49.030;1.820;2022-09-09T06:01:18;100104.88;;;19.73;54.56
62374;BME280;48409;49.030;1.820;2022-09-09T06:03:45;100106.53;;;19.74;54.60
62374;BME280;48409;49.030;1.820;2022-09-09T06:06:13;100106.53;;;19.74;54.82
62374;BME280;48409;49.030;1.820;2022-09-09T06:08:41;100111.59;;;19.77;54.69
62374;BME280;48409;49.030;1.820;2022-09-09T06:11:11;100106.25;;;19.77;54.76
62374;BME280;48409;49.030;1.820;2022-09-09T06:13:38;100111.59;;;19.77;54.71
62374;BME280;48409;49.030;1.820;2022-09-09T06:16:08;100105.25;;;19.78;54.56
62374;BME280;48409;49.030;1.820;2022-09-09T06:18:33;100113.97;;;19.80;54.54
62374;BME280;48409;49.030;1.820;2022-09-09T06:21:01;100115.69;;;19.81;54.79
62374;BME280;48409;49.030;1.820;2022-09-09T06:23:27;100113.81;;;19.82;54.85
62374;BME280;48409;49.030;1.820;2022-09-09T06:26:14;100116.34;;;19.83;54.77
62374;BME280;48409;49.030;1.820;2022-09-09T06:28:40;100117.34;;;19.82;54.83
62374;BME280;48409;49.030;1.820;2022-09-09T06:31:10;100121.69;;;19.83;54.97
62374;BME280;48409;49.030;1.820;2022-09-09T06:33:38;100121.69;;;19.83;54.91
62374;BME280;48409;49.030;1.820;2022-09-09T06:36:14;100121.69;;;19.83;54.81
62374;BME280;48409;49.030;1.820;2022-09-09T06:38:44;100118.03;;;19.85;54.98
62374;BME280;48409;49.030;1.820;2022-09-09T06:41:11;100117.22;;;19.84;55.03
62374;BME280;48409;49.030;1.820;2022-09-09T06:43:37;100115.50;;;19.83;55.06
62374;BME280;48409;49.030;1.820;2022-09-09T06:46:08;100113.69;;;19.83;55.01
62374;BME280;48409;49.030;1.820;2022-09-09T06:48:34;100110.16;;;19.83;55.04
62374;BME280;48409;49.030;1.820;2022-09-09T06:53:41;100114.69;;;19.82;55.05
62374;BME280;48409;49.030;1.820;2022-09-09T06:58:41;100117.34;;;19.82;55.20
62374;BME280;48409;49.030;1.820;2022-09-09T07:01:11;100115.50;;;19.83;54.81
62374;BME280;48409;49.030;1.820;2022-09-09T07:03:38;100125.38;;;19.82;55.06
62374;BME280;48409;49.030;1.820;2022-09-09T07:06:05;100126.38;;;19.81;55.34
62374;BME280;48409;49.030;1.820;2022-09-09T07:08:31;100129.03;;;19.81;55.30
62374;BME280;48409;49.030;1.820;2022-09-09T07:11:07;100136.06;;;19.82;55.25
62374;BME280;48409;49.030;1.820;2022-09-09T07:13:34;100127.19;;;19.82;55.24
62374;BME280;48409;49.030;1.820;2022-09-09T07:16:13;100133.38;;;19.82;55.25
62374;BME280;48409;49.030;1.820;2022-09-09T07:18:41;100126.19;;;19.83;55.43
62374;BME280;48409;49.030;1.820;2022-09-09T07:21:07;100124.38;;;19.83;55.63
62374;BME280;48409;49.030;1.820;2022-09-09T07:23:34;100133.25;;;19.84;55.46
62374;BME280;48409;49.030;1.820;2022-09-09T07:26:02;100139.41;;;19.85;55.43
62374;BME280;48409;49.030;1.820;2022-09-09T07:28:28;100136.59;;;19.86;55.40
62374;BME280;48409;49.030;1.820;2022-09-09T07:30:57;100137.44;;;19.87;55.55
62374;BME280;48409;49.030;1.820;2022-09-09T07:33:23;100144.47;;;19.88;55.55
62374;BME280;48409;49.030;1.820;2022-09-09T07:35:50;100146.16;;;19.89;55.57
62374;BME280;48409;49.030;1.820;2022-09-09T07:38:16;100138.13;;;19.89;55.55
62374;BME280;48409;49.030;1.820;2022-09-09T07:40:41;100144.19;;;19.91;55.66
62374;BME280;48409;49.030;1.820;2022-09-09T07:43:07;100140.53;;;19.92;55.71
62374;BME280;48409;49.030;1.820;2022-09-09T07:45:33;100149.22;;;19.94;55.83
62374;BME280;48409;49.030;1.820;2022-09-09T07:48:00;100143.88;;;19.94;55.83
62374;BME280;48409;49.030;1.820;2022-09-09T07:50:25;100141.91;;;19.96;55.90
62374;BME280;48409;49.030;1.820;2022-09-09T07:52:52;100147.00;;;19.99;55.72
62374;BME280;48409;49.030;1.820;2022-09-09T07:55:19;100145.03;;;20.01;56.19
62374;BME280;48409;49.030;1.820;2022-09-09T07:57:45;100149.22;;;20.04;56.10
62374;BME280;48409;49.030;1.820;2022-09-09T08:00:11;100147.28;;;20.06;56.00
62374;BME280;48409;49.030;1.820;2022-09-09T08:02:36;100147.81;;;20.09;55.96
62374;BME280;48409;49.030;1.820;2022-09-09T08:05:02;100154.84;;;20.11;55.91
62374;BME280;48409;49.030;1.820;2022-09-09T08:07:28;100144.69;;;20.14;56.11
62374;BME280;48409;49.030;1.820;2022-09-09T08:09:54;100148.91;;;20.17;56.09
62374;BME280;48409;49.030;1.820;2022-09-09T08:12:21;100153.00;;;20.21;56.17
62374;BME280;48409;49.030;1.820;2022-09-09T08:14:46;100157.03;;;20.25;56.37
62374;BME280;48409;49.030;1.820;2022-09-09T08:17:11;100157.44;;;20.30;56.52
62374;BME280;48409;49.030;1.820;2022-09-09T08:19:37;100156.16;;;20.34;56.72
62374;BME280;48409;49.030;1.820;2022-09-09T08:22:02;100162.59;;;20.42;56.80
62374;BME280;48409;49.030;1.820;2022-09-09T08:24:28;100159.34;;;20.48;56.76
62374;BME280;48409;49.030;1.820;2022-09-09T08:26:54;100173.78;;;20.55;56.74
62374;BME280;48409;49.030;1.820;2022-09-09T08:29:22;100169.53;;;20.63;56.84
62374;BME280;48409;49.030;1.820;2022-09-09T08:31:52;100165.28;;;20.70;56.85
62374;BME280;48409;49.030;1.820;2022-09-09T08:34:19;100163.81;;;20.76;56.52
62374;BME280;48409;49.030;1.820;2022-09-09T08:36:46;100165.91;;;20.82;56.74
62374;BME280;48409;49.030;1.820;2022-09-09T08:39:15;100177.00;;;20.87;56.42
62374;BME280;48409;49.030;1.820;2022-09-09T08:52:18;100198.44;;;21.05;55.97
62374;BME280;48409;49.030;1.820;2022-09-09T08:54:45;100197.13;;;21.09;55.94
62374;BME280;48409;49.030;1.820;2022-09-09T08:57:14;100198.00;;;21.10;56.09
62374;BME280;48409;49.030;1.820;2022-09-09T08:59:43;100188.13;;;21.10;55.99
62374;BME280;48409;49.030;1.820;2022-09-09T09:02:26;100185.31;;;21.12;55.99
62374;BME280;48409;49.030;1.820;2022-09-09T09:12:51;100198.22;;;21.17;55.89
62374;BME280;48409;49.030;1.820;2022-09-09T09:15:23;100208.63;;;21.20;55.89
62374;BME280;48409;49.030;1.820;2022-09-09T09:17:49;100212.84;;;21.22;55.96
62374;BME280;48409;49.030;1.820;2022-09-09T09:20:16;100217.91;;;21.25;56.00
62374;BME280;48409;49.030;1.820;2022-09-09T09:25:19;100214.59;;;21.32;55.95
62374;BME280;48409;49.030;1.820;2022-09-09T09:28:00;100225.84;;;21.35;55.81
62374;BME280;48409;49.030;1.820;2022-09-09T09:36:08;100232.94;;;21.45;55.85
62374;BME280;48409;49.030;1.820;2022-09-09T09:38:34;100234.66;;;21.46;55.77
62374;BME280;48409;49.030;1.820;2022-09-09T09:41:01;100235.34;;;21.48;55.85
62374;BME280;48409;49.030;1.820;2022-09-09T09:43:30;100247.56;;;21.50;55.49
62374;BME280;48409;49.030;1.820;2022-09-09T09:45:57;100244.75;;;21.52;55.76
62374;BME280;48409;49.030;1.820;2022-09-09T09:48:24;100243.59;;;21.55;55.67
62374;BME280;48409;49.030;1.820;2022-09-09T09:50:51;100254.16;;;21.56;55.82
62374;BME280;48409;49.030;1.820;2022-09-09T09:53:25;100255.03;;;21.57;55.54
62374;BME280;48409;49.030;1.820;2022-09-09T09:56:04;100252.16;;;21.58;55.44
62374;BME280;48409;49.030;1.820;2022-09-09T09:58:32;100252.16;;;21.58;55.46
62374;BME280;48409;49.030;1.820;2022-09-09T10:00:59;100253.16;;;21.57;55.34
62374;BME280;48409;49.030;1.820;2022-09-09T10:03:30;100258.53;;;21.57;55.27
62374;BME280;48409;49.030;1.820;2022-09-09T10:05:56;100262.19;;;21.56;55.27
62374;BME280;48409;49.030;1.820;2022-09-09T10:08:26;100264.22;;;21.54;55.27
62374;BME280;48409;49.030;1.820;2022-09-09T10:13:29;100273.22;;;21.53;55.22
62374;BME280;48409;49.030;1.820;2022-09-09T10:16:20;100266.19;;;21.52;55.17
62374;BME280;48409;49.030;1.820;2022-09-09T10:19:00;100267.84;;;21.53;55.17
62374;BME280;48409;49.030;1.820;2022-09-09T10:30:00;100251.19;;;21.59;55.24
62374;BME280;48409;49.030;1.820;2022-09-09T10:35:51;100253.38;;;21.64;55.21
62374;BME280;48409;49.030;1.820;2022-09-09T10:38:40;100272.00;;;21.65;55.10
62374;BME280;48409;49.030;1.820;2022-09-09T10:41:18;100264.66;;;21.68;55.07
62374;BME280;48409;49.030;1.820;2022-09-09T10:44:02;100260.97;;;21.69;54.99
62374;BME280;48409;49.030;1.820;2022-09-09T10:46:45;100249.94;;;21.72;55.04
62374;BME280;48409;49.030;1.820;2022-09-09T10:52:18;100247.69;;;21.77;55.15
62374;BME280;48409;49.030;1.820;2022-09-09T10:55:00;100255.56;;;21.78;55.12
62374;BME280;48409;49.030;1.820;2022-09-09T10:57:33;100259.78;;;21.81;54.96
62374;BME280;48409;49.030;1.820;2022-09-09T11:00:13;100258.78;;;21.82;55.04
62374;BME280;48409;49.030;1.820;2022-09-09T11:02:41;100272.84;;;21.84;55.01
62374;BME280;48409;49.030;1.820;2022-09-09T11:05:14;100264.81;;;21.84;55.02
62374;BME280;48409;49.030;1.820;2022-09-09T11:07:54;100266.50;;;21.85;54.80
62374;BME280;48409;49.030;1.820;2022-09-09T11:10:34;100267.50;;;21.84;54.72
62374;BME280;48409;49.030;1.820;2022-09-09T11:13:04;100279.22;;;21.83;54.65
62374;BME280;48409;49.030;1.820;2022-09-09T11:15:37;100278.34;;;21.83;54.80
62374;BME280;48409;49.030;1.820;2022-09-09T11:18:17;100287.41;;;21.82;54.75
62374;BME280;48409;49.030;1.820;2022-09-09T11:20:46;100285.88;;;21.79;54.54
62374;BME280;48409;49.030;1.820;2022-09-09T11:23:20;100283.50;;;21.76;54.45
62374;BME280;48409;49.030;1.820;2022-09-09T11:26:06;100293.69;;;21.72;54.79
62374;BME280;48409;49.030;1.820;2022-09-09T11:29:45;100290.47;;;21.69;54.66
62374;BME280;48409;49.030;1.820;2022-09-09T11:34:26;100299.94;;;21.63;54.71
62374;BME280;48409;49.030;1.820;2022-09-09T11:42:24;100322.00;;;21.57;54.67
62374;BME280;48409;49.030;1.820;2022-09-09T11:44:50;100320.28;;;21.56;55.02
62374;BME280;48409;49.030;1.820;2022-09-09T11:47:29;100308.03;;;21.53;54.96
62374;BME280;48409;49.030;1.820;2022-09-09T11:50:34;100316.09;;;21.53;54.96
62374;BME280;48409;49.030;1.820;2022-09-09T11:53:20;100317.09;;;21.52;55.00
62374;BME280;48409;49.030;1.820;2022-09-09T11:55:48;100323.44;;;21.51;55.02
62374;BME280;48409;49.030;1.820;2022-09-09T11:58:24;100328.09;;;21.49;55.17
62374;BME280;48409;49.030;1.820;2022-09-09T12:00:50;100325.41;;;21.49;55.11
62374;BME280;48409;49.030;1.820;2022-09-09T12:03:46;100337.84;;;21.50;55.13
62374;BME280;48409;49.030;1.820;2022-09-09T12:08:53;100341.50;;;21.49;55.21
62374;BME280;48409;49.030;1.820;2022-09-09T12:11:28;100338.97;;;21.47;55.27
62374;BME280;48409;49.030;1.820;2022-09-09T12:13:55;100338.13;;;21.47;55.21
62374;BME280;48409;49.030;1.820;2022-09-09T12:16:35;100334.59;;;21.46;55.16
62374;BME280;48409;49.030;1.820;2022-09-09T12:21:54;100340.09;;;21.45;55.28
62374;BME280;48409;49.030;1.820;2022-09-09T12:24:40;100338.44;;;21.44;55.04
62374;BME280;48409;49.030;1.820;2022-09-09T12:27:28;100344.78;;;21.43;55.19
62374;BME280;48409;49.030;1.820;2022-09-09T12:30:16;100346.75;;;21.41;55.16
62374;BME280;48409;49.030;1.820;2022-09-09T12:32:42;100353.13;;;21.39;55.33
62374;BME280;48409;49.030;1.820;2022-09-09T12:35:43;100346.06;;;21.38;55.40
62374;BME280;48409;49.030;1.820;2022-09-09T12:38:04;100353.44;;;21.36;55.34
62374;BME280;48409;49.030;1.820;2022-09-09T12:40:35;100346.38;;;21.35;55.27
62374;BME280;48409;49.030;1.820;2022-09-09T12:43:17;100350.91;;;21.35;55.30
62374;BME280;48409;49.030;1.820;2022-09-09T12:45:43;100357.09;;;21.35;55.42
62374;BME280;48409;49.030;1.820;2022-09-09T12:48:11;100351.72;;;21.35;55.58
62374;BME280;48409;49.030;1.820;2022-09-09T12:50:38;100356.25;;;21.35;55.67
62374;BME280;48409;49.030;1.820;2022-09-09T12:53:21;100357.09;;;21.35;55.59
62374;BME280;48409;49.030;1.820;2022-09-09T12:55:59;100356.13;;;21.36;55.57
62374;BME280;48409;49.030;1.820;2022-09-09T12:58:26;100354.25;;;21.37;55.45
62374;BME280;48409;49.030;1.820;2022-09-09T13:00:54;100353.25;;;21.38;55.65
62374;BME280;48409;49.030;1.820;2022-09-09T13:03:24;100363.84;;;21.39;55.70
62374;BME280;48409;49.030;1.820;2022-09-09T13:05:50;100360.31;;;21.39;55.66
62374;BME280;48409;49.030;1.820;2022-09-09T13:08:17;100371.72;;;21.41;55.65
62374;BME280;48409;49.030;1.820;2022-09-09T13:11:04;100369.91;;;21.42;55.50
62374;BME280;48409;49.030;1.820;2022-09-09T13:13:36;100367.22;;;21.42;55.91
62374;BME280;48409;49.030;1.820;2022-09-09T13:16:04;100377.94;;;21.42;55.76
62374;BME280;48409;49.030;1.820;2022-09-09T13:18:34;100374.25;;;21.43;55.68
62374;BME280;48409;49.030;1.820;2022-09-09T13:21:00;100370.56;;;21.44;55.79
62374;BME280;48409;49.030;1.820;2022-09-09T13:23:29;100372.09;;;21.46;55.75
62374;BME280;48409;49.030;1.820;2022-09-09T13:25:57;100371.09;;;21.47;55.82
62374;BME280;48409;49.030;1.820;2022-09-09T13:28:25;100362.94;;;21.49;55.77
62374;BME280;48409;49.030;1.820;2022-09-09T13:31:22;100378.03;;;21.50;55.83
62374;BME280;48409;49.030;1.820;2022-09-09T13:33:47;100372.50;;;21.51;55.95
62374;BME280;48409;49.030;1.820;2022-09-09T13:36:13;100374.06;;;21.54;56.00
62374;BME280;48409;49.030;1.820;2022-09-09T13:41:28;100374.72;;;21.56;55.91
62374;BME280;48409;49.030;1.820;2022-09-09T13:43:55;100367.38;;;21.58;56.04
62374;BME280;48409;49.030;1.820;2022-09-09T13:46:32;100369.09;;;21.59;56.08
62374;BME280;48409;49.030;1.820;2022-09-09T13:49:01;100370.75;;;21.60;56.04
62374;BME280;48409;49.030;1.820;2022-09-09T13:54:06;100355.69;;;21.59;55.80
62374;BME280;48409;49.030;1.820;2022-09-09T13:56:36;100354.84;;;21.59;56.00
62374;BME280;48409;49.030;1.820;2022-09-09T13:59:04;100354.69;;;21.60;55.92
62374;BME280;48409;49.030;1.820;2022-09-09T14:01:30;100356.66;;;21.58;56.05
62374;BME280;48409;49.030;1.820;2022-09-09T14:03:56;100354.97;;;21.57;56.04
62374;BME280;48409;49.030;1.820;2022-09-09T14:06:22;100342.59;;;21.56;56.09
62374;BME280;48409;49.030;1.820;2022-09-09T14:08:49;100354.16;;;21.57;55.91
62374;BME280;48409;49.030;1.820;2022-09-09T14:11:15;100358.66;;;21.56;56.10
62374;BME280;48409;49.030;1.820;2022-09-09T14:13:40;100362.34;;;21.55;56.17
62374;BME280;48409;49.030;1.820;2022-09-09T14:16:06;100362.34;;;21.55;55.99
62374;BME280;48409;49.030;1.820;2022-09-09T14:18:31;100362.34;;;21.55;56.15
62374;BME280;48409;49.030;1.820;2022-09-09T14:20:57;100358.66;;;21.56;56.32
62374;BME280;48409;49.030;1.820;2022-09-09T14:23:24;100349.63;;;21.57;56.43
62374;BME280;48409;49.030;1.820;2022-09-09T14:25:50;100349.63;;;21.57;56.54
62374;BME280;48409;49.030;1.820;2022-09-09T14:28:16;100343.44;;;21.57;56.37
62374;BME280;48409;49.030;1.820;2022-09-09T14:30:43;100352.31;;;21.57;56.58
62374;BME280;48409;49.030;1.820;2022-09-09T14:33:11;100352.16;;;21.59;56.34
62374;BME280;48409;49.030;1.820;2022-09-09T14:35:37;100345.94;;;21.58;56.35
62374;BME280;48409;49.030;1.820;2022-09-09T14:38:04;100347.66;;;21.59;56.47
62374;BME280;48409;49.030;1.820;2022-09-09T14:40:30;100350.31;;;21.59;56.49
62374;BME280;48409;49.030;1.820;2022-09-09T14:42:55;100343.97;;;21.60;56.42
62374;BME280;48409;49.030;1.820;2022-09-09T14:45:22;100339.63;;;21.59;56.41
62374;BME280;48409;49.030;1.820;2022-09-09T14:47:50;100347.66;;;21.59;56.38
62374;BME280;48409;49.030;1.820;2022-09-09T14:50:15;100343.25;;;21.58;56.48
62374;BME280;48409;49.030;1.820;2022-09-09T14:52:41;100351.31;;;21.58;56.49
62374;BME280;48409;49.030;1.820;2022-09-09T14:55:07;100344.25;;;21.57;56.65